This is the latest recevied weather packets stored in our database for station/object WX5RP. If no packets are shown the sender has not sent any weather packets the latest 10 day(s).
| Time | Temp. | Humidity | Pressure | Rain* | Wind** | Luminosity | Snow |
|---|---|---|---|---|---|---|---|
| 1788001816 | 5.56° C | 85% | 1018.1 hPa | 0 mm | - | 0 W/m² | - |
| 1788001215 | 5.56° C | 85% | 1018.1 hPa | 0 mm | - | 0 W/m² | - |
| 1788000616 | 6.11° C | 84% | 1017.9 hPa | 0 mm | - | 0 W/m² | - |
| 1788000016 | 6.11° C | 84% | 1018 hPa | 0 mm | - | 0 W/m² | - |
| 1787999415 | 6.11° C | 84% | 1017.7 hPa | 0 mm | - | 0 W/m² | - |
| 1787998816 | 6.67° C | 83% | 1017.9 hPa | 0 mm | - | 0 W/m² | - |
| 1787998216 | 6.67° C | 83% | 1017.9 hPa | 0 mm | - | 0 W/m² | - |
| 1787997615 | 7.78° C | 82% | 1018.2 hPa | 0 mm | - | 0 W/m² | - |
| 1787997019 | 7.78° C | 83% | 1018.5 hPa | 0 mm | - | 0 W/m² | - |
| 1787996416 | 6.67° C | 84% | 1018.3 hPa | 0 mm | - | 0 W/m² | - |
| 1787995818 | 6.67° C | 83% | 1018.3 hPa | 0 mm | - | 0 W/m² | - |
| 1787995215 | 6.67° C | 82% | 1018.4 hPa | 0 mm | - | 0 W/m² | - |
| 1787994615 | 7.22° C | 82% | 1018.3 hPa | 0 mm | - | 0 W/m² | - |
| 1787994015 | 7.22° C | 81% | 1018.3 hPa | 0 mm | - | 0 W/m² | - |
| 1787993415 | 7.78° C | 80% | 1018.3 hPa | 0 mm | - | 0 W/m² | - |
| 1787992815 | 7.78° C | 80% | 1018.3 hPa | 0 mm | - | 0 W/m² | - |
| 1787992217 | 8.33° C | 78% | 1018.3 hPa | 0 mm | - | 0 W/m² | - |
| 1787991617 | 8.89° C | 77% | 1018.4 hPa | 0 mm | - | 0 W/m² | - |
| 1787991017 | 9.44° C | 76% | 1018.8 hPa | 0 mm | - | 0 W/m² | - |
| 1787990417 | 10° C | 74% | 1018.8 hPa | 0 mm | - | 0 W/m² | - |
| 1787989817 | 10° C | 72% | 1018.5 hPa | 0 mm | - | 0 W/m² | - |
| 1787989217 | 11.11° C | 68% | 1018.5 hPa | 0 mm | - | 0 W/m² | - |
| 1787988617 | 11.67° C | 67% | 1018.5 hPa | 0 mm | - | 0 W/m² | - |
| 1787988017 | 11.67° C | 67% | 1018.6 hPa | 0 mm | - | 0 W/m² | - |
| 1787987416 | 12.22° C | 64% | 1018 hPa | 0 mm | - | 0 W/m² | - |
* Rain latest hour (hover to see other rain measurements)
** Current wind speed in m/s (hover to see current wind gust speed)